Time;durP1;ratioP1;P1;durP2;ratioP2;P2;SDS_P1;SDS_P2;PMS_P1;PMS_P2;Temp;Humidity;BMP_temperature;BMP_pressure;BME280_temperature;BME280_humidity;BME280_pressure;Samples;Min_cycle;Max_cycle;Signal;HPM_P1;HPM_P2
2021/12/08 00:00:33;;;;;;;0.77;0.77;;;5.70;99.90;;;;;;5068372;28;20631;-64
2021/12/08 00:03:00;;;;;;;5.65;1.58;;;5.70;99.90;;;;;;5056019;28;20202;-67
2021/12/08 00:05:30;;;;;;;0.50;0.50;;;5.70;99.90;;;;;;5060734;28;20242;-64
2021/12/08 00:07:59;;;;;;;1.00;0.95;;;5.70;99.90;;;;;;5066911;28;20207;-64
2021/12/08 00:10:51;;;;;;;1.63;0.70;;;5.70;99.90;;;;;;5067800;28;20293;-64
2021/12/08 00:13:17;;;;;;;4.97;0.80;;;5.70;99.90;;;;;;5068030;28;20608;-64
2021/12/08 00:15:46;;;;;;;0.70;0.70;;;5.70;99.90;;;;;;5080112;28;20289;-64
2021/12/08 00:18:15;;;;;;;0.40;0.30;;;5.70;99.90;;;;;;5065455;28;20369;-64
2021/12/08 00:20:45;;;;;;;0.43;0.40;;;5.60;99.90;;;;;;5068237;28;20696;-64
2021/12/08 00:23:13;;;;;;;0.50;0.40;;;5.40;99.90;;;;;;5067274;28;20200;-64
2021/12/08 00:25:40;;;;;;;1.65;0.90;;;5.30;99.90;;;;;;5065905;28;20677;-64
2021/12/08 00:28:07;;;;;;;3.20;0.60;;;5.20;99.90;;;;;;5066231;28;20212;-63
2021/12/08 00:30:36;;;;;;;2.53;1.00;;;5.10;99.90;;;;;;5066251;28;20702;-64
2021/12/08 00:33:04;;;;;;;0.65;0.65;;;5.00;99.90;;;;;;5068224;28;20255;-66
2021/12/08 00:35:30;;;;;;;0.80;0.60;;;4.90;99.90;;;;;;5068255;28;20210;-64
2021/12/08 00:37:59;;;;;;;3.50;0.95;;;4.90;99.90;;;;;;5080888;28;20226;-66
2021/12/08 00:40:28;;;;;;;0.50;0.50;;;4.80;99.90;;;;;;5067370;28;20702;-66
2021/12/08 00:42:55;;;;;;;1.63;0.95;;;4.80;99.90;;;;;;5066901;28;20200;-65
2021/12/08 00:45:23;;;;;;;4.57;0.98;;;4.70;99.90;;;;;;5067422;28;20307;-65
2021/12/08 00:47:51;;;;;;;1.55;1.13;;;4.70;99.90;;;;;;5067101;28;20199;-65
2021/12/08 00:50:20;;;;;;;0.82;0.82;;;4.70;99.90;;;;;;5066903;28;20716;-65
2021/12/08 00:52:46;;;;;;;0.70;0.63;;;4.70;99.90;;;;;;5067615;28;20210;-65
2021/12/08 00:55:16;;;;;;;0.50;0.50;;;4.70;99.90;;;;;;5067170;28;20201;-65
2021/12/08 00:57:44;;;;;;;0.60;0.60;;;4.70;99.90;;;;;;5066813;28;20275;-65
2021/12/08 01:00:15;;;;;;;1.60;0.90;;;4.70;99.90;;;;;;5066537;28;20225;-66
2021/12/08 01:02:42;;;;;;;1.17;0.70;;;4.70;99.90;;;;;;5067196;28;20703;-64
2021/12/08 01:05:11;;;;;;;1.05;0.82;;;4.70;99.90;;;;;;5067121;28;20215;-64
2021/12/08 01:07:38;;;;;;;1.95;1.25;;;4.70;99.90;;;;;;5066888;28;21372;-64
2021/12/08 01:10:07;;;;;;;0.63;0.45;;;4.70;99.90;;;;;;5071226;28;20271;-63
2021/12/08 01:12:35;;;;;;;1.95;1.00;;;4.70;99.90;;;;;;5066446;28;20199;-66
2021/12/08 01:15:02;;;;;;;0.80;0.60;;;4.70;99.90;;;;;;5066221;28;20571;-66
2021/12/08 01:17:29;;;;;;;1.08;0.50;;;4.80;99.90;;;;;;5071986;28;20239;-66
2021/12/08 01:19:55;;;;;;;3.80;0.50;;;4.80;99.90;;;;;;5074426;28;20235;-65
2021/12/08 01:22:22;;;;;;;0.52;0.40;;;4.90;99.90;;;;;;5073194;28;20269;-66
2021/12/08 01:24:49;;;;;;;0.70;0.70;;;4.90;99.90;;;;;;5066405;28;20280;-65
2021/12/08 01:27:16;;;;;;;3.70;0.50;;;4.90;99.90;;;;;;5072806;28;20646;-65
2021/12/08 01:29:47;;;;;;;0.50;0.40;;;4.90;99.90;;;;;;5063698;28;20290;-66
2021/12/08 01:32:14;;;;;;;0.40;0.40;;;5.00;99.90;;;;;;5063875;28;20762;-64
2021/12/08 01:34:41;;;;;;;0.60;0.43;;;5.00;99.90;;;;;;5070988;28;20263;-64
2021/12/08 01:37:08;;;;;;;2.65;0.60;;;5.00;99.90;;;;;;5062814;28;20230;-64
2021/12/08 01:39:35;;;;;;;0.40;0.30;;;5.00;99.90;;;;;;5068101;28;20295;-66
2021/12/08 01:42:02;;;;;;;0.60;0.55;;;5.10;99.90;;;;;;5057575;28;20201;-64
2021/12/08 01:47:29;;;;;;;1.15;1.15;;;5.20;99.90;;;;;;5015177;28;20204;-64
2021/12/08 01:49:56;;;;;;;4.28;1.00;;;5.20;99.90;;;;;;5028860;28;20383;-64
2021/12/08 01:52:23;;;;;;;0.60;0.40;;;5.20;99.90;;;;;;5037744;28;20197;-64
2021/12/08 01:54:50;;;;;;;0.50;0.50;;;5.30;99.90;;;;;;5069595;28;20209;-64
2021/12/08 01:57:16;;;;;;;0.50;0.50;;;5.30;99.90;;;;;;5064315;28;20631;-64
2021/12/08 01:59:43;;;;;;;0.90;0.70;;;5.30;99.90;;;;;;5069288;28;20329;-64
2021/12/08 02:02:10;;;;;;;0.80;0.80;;;5.30;99.90;;;;;;5050222;28;20259;-64
2021/12/08 02:04:38;;;;;;;0.70;0.50;;;5.30;99.90;;;;;;5036329;28;20206;-63
2021/12/08 02:07:05;;;;;;;0.70;0.40;;;5.30;99.90;;;;;;5041358;28;20231;-67
2021/12/08 02:09:31;;;;;;;0.60;0.60;;;5.30;99.90;;;;;;5043516;28;20223;-63
2021/12/08 02:11:58;;;;;;;1.40;0.80;;;5.30;99.90;;;;;;5038771;28;20653;-63
2021/12/08 02:14:25;;;;;;;2.90;0.93;;;5.20;99.90;;;;;;5042325;28;20206;-64
2021/12/08 02:16:54;;;;;;;1.50;1.00;;;5.20;99.90;;;;;;5043762;28;20237;-63
2021/12/08 02:19:22;;;;;;;0.60;0.60;;;5.20;99.90;;;;;;5039805;28;20228;-64
2021/12/08 02:21:52;;;;;;;1.23;0.85;;;5.20;99.90;;;;;;5040194;28;20263;-64
2021/12/08 02:24:20;;;;;;;0.73;0.73;;;5.20;99.90;;;;;;5043667;28;20275;-64
2021/12/08 02:26:50;;;;;;;0.63;0.63;;;5.10;99.90;;;;;;5037782;28;20201;-66
2021/12/08 02:29:23;;;;;;;3.17;0.75;;;5.00;99.90;;;;;;5042268;28;20226;-63
2021/12/08 02:31:56;;;;;;;0.85;0.73;;;5.00;99.90;;;;;;5039395;28;20675;-64
2021/12/08 02:48:07;;;;;;;3.90;0.70;;;4.90;99.90;;;;;;5051713;28;20210;-63
2021/12/08 02:50:36;;;;;;;0.68;0.50;;;4.90;99.90;;;;;;5056498;28;20241;-64
2021/12/08 02:53:06;;;;;;;2.15;1.00;;;4.90;99.90;;;;;;5052347;28;20217;-63
2021/12/08 02:55:33;;;;;;;0.70;0.60;;;4.80;99.90;;;;;;5054242;28;20275;-64
2021/12/08 02:58:02;;;;;;;0.82;0.50;;;4.80;99.90;;;;;;5059684;28;20252;-63
2021/12/08 03:00:33;;;;;;;2.55;1.40;;;4.80;99.90;;;;;;5055526;28;20231;-65
2021/12/08 03:03:02;;;;;;;0.80;0.60;;;4.80;99.90;;;;;;5049215;28;20205;-66
2021/12/08 03:05:31;;;;;;;0.90;0.70;;;4.70;99.90;;;;;;5046450;28;20252;-64
2021/12/08 03:07:58;;;;;;;0.70;0.70;;;4.80;99.90;;;;;;5042260;28;20206;-64
2021/12/08 03:10:29;;;;;;;0.60;0.50;;;4.80;99.90;;;;;;5047364;28;20707;-64
2021/12/08 03:12:56;;;;;;;0.88;0.88;;;4.70;99.90;;;;;;5045643;28;20291;-64
2021/12/08 03:15:23;;;;;;;1.05;1.00;;;4.70;99.90;;;;;;5044240;28;20208;-65
2021/12/08 03:17:50;;;;;;;0.95;0.85;;;4.70;99.90;;;;;;5045977;28;20738;-64
2021/12/08 03:20:36;;;;;;;0.47;0.40;;;4.70;99.90;;;;;;5044482;28;20321;-65
2021/12/08 03:23:04;;;;;;;1.17;1.00;;;4.80;99.90;;;;;;5045292;28;20205;-64
2021/12/08 03:25:36;;;;;;;0.65;0.60;;;4.70;99.90;;;;;;5045105;28;20214;-64
2021/12/08 03:28:09;;;;;;;1.25;1.20;;;4.70;99.90;;;;;;5044626;28;20323;-64
2021/12/08 03:30:40;;;;;;;0.73;0.73;;;4.70;99.90;;;;;;5048216;28;20332;-65
2021/12/08 03:33:08;;;;;;;1.05;0.80;;;4.70;99.90;;;;;;5058096;28;20202;-65
2021/12/08 03:35:36;;;;;;;0.70;0.70;;;4.70;99.90;;;;;;5059610;28;20221;-64
2021/12/08 03:38:03;;;;;;;1.58;1.10;;;4.70;99.90;;;;;;5053539;28;20302;-65
2021/12/08 03:40:32;;;;;;;0.95;0.70;;;4.70;99.90;;;;;;5046416;28;20791;-65
2021/12/08 03:43:00;;;;;;;1.13;0.73;;;4.70;99.90;;;;;;5049081;28;20269;-64
2021/12/08 03:45:32;;;;;;;0.90;0.85;;;4.70;99.90;;;;;;5051309;28;20201;-64
2021/12/08 03:48:02;;;;;;;1.35;0.65;;;4.70;99.90;;;;;;5046417;28;20210;-64
2021/12/08 03:50:31;;;;;;;0.98;0.75;;;4.80;99.90;;;;;;5042352;28;20237;-65
2021/12/08 03:52:58;;;;;;;0.70;0.60;;;4.70;99.90;;;;;;5043939;28;20241;-66
2021/12/08 03:55:26;;;;;;;0.60;0.60;;;4.80;99.90;;;;;;5044666;28;20211;-64
2021/12/08 03:57:54;;;;;;;0.90;0.75;;;4.70;99.90;;;;;;5044625;28;20214;-64
2021/12/08 04:00:26;;;;;;;0.68;0.68;;;4.80;99.90;;;;;;5046804;28;20226;-65
2021/12/08 04:02:53;;;;;;;0.70;0.60;;;4.80;99.90;;;;;;5051941;28;20207;-64
2021/12/08 04:05:31;;;;;;;1.08;1.02;;;4.80;99.90;;;;;;5043513;28;20208;-64
2021/12/08 04:08:03;;;;;;;1.10;0.80;;;4.80;99.90;;;;;;5042008;28;20764;-63
2021/12/08 04:10:30;;;;;;;0.77;0.77;;;4.80;99.90;;;;;;5045461;28;20352;-63
2021/12/08 04:12:58;;;;;;;0.40;0.40;;;4.90;99.90;;;;;;5042954;28;20594;-64
2021/12/08 04:15:27;;;;;;;1.75;0.75;;;4.90;99.90;;;;;;5042208;28;20295;-63
2021/12/08 04:17:55;;;;;;;1.95;1.20;;;4.90;99.90;;;;;;5042782;28;20262;-64
2021/12/08 04:20:25;;;;;;;0.98;0.73;;;5.00;99.90;;;;;;5043586;28;20974;-64
2021/12/08 04:22:54;;;;;;;0.93;0.80;;;5.00;99.90;;;;;;5043710;28;20307;-65
2021/12/08 04:25:24;;;;;;;2.00;0.75;;;5.00;99.90;;;;;;5049672;28;20792;-65
2021/12/08 04:27:55;;;;;;;0.60;0.60;;;5.00;99.90;;;;;;5041993;28;20680;-63
2021/12/08 04:30:25;;;;;;;1.02;0.93;;;5.00;99.90;;;;;;5041253;28;20252;-64
2021/12/08 04:32:53;;;;;;;1.73;1.63;;;5.00;99.90;;;;;;5045230;28;20293;-64
2021/12/08 04:35:21;;;;;;;3.80;1.20;;;4.90;99.90;;;;;;5043414;28;20228;-64
2021/12/08 04:37:53;;;;;;;0.50;0.50;;;4.80;99.90;;;;;;5043425;28;20562;-66
2021/12/08 04:40:30;;;;;;;1.30;1.20;;;4.80;99.90;;;;;;5042410;28;20667;-66
2021/12/08 04:43:07;;;;;;;0.70;0.70;;;4.80;99.90;;;;;;5044915;28;20985;-66
2021/12/08 04:45:44;;;;;;;1.45;1.20;;;4.80;99.90;;;;;;5042303;28;20324;-64
2021/12/08 04:48:23;;;;;;;1.77;1.38;;;4.90;99.90;;;;;;5042415;28;20220;-65
2021/12/08 04:51:16;;;;;;;0.50;0.50;;;4.90;99.90;;;;;;5043709;28;20224;-64
2021/12/08 05:00:12;;;;;;;1.15;0.82;;;5.00;99.90;;;;;;5042313;28;21045;-65
2021/12/08 05:02:24;;;;;;;1.80;0.95;;;5.00;99.90;;;;;;5040468;28;20306;-65
2021/12/08 05:05:08;;;;;;;0.73;0.70;;;5.00;99.90;;;;;;5042526;28;21809;-63
2021/12/08 05:07:48;;;;;;;1.40;1.30;;;4.90;99.90;;;;;;5046187;28;20597;-68
2021/12/08 05:10:19;;;;;;;1.02;0.70;;;4.90;99.90;;;;;;5045752;28;20400;-65
2021/12/08 05:12:50;;;;;;;1.40;0.85;;;4.80;99.90;;;;;;5044863;28;20195;-66
2021/12/08 05:15:21;;;;;;;0.60;0.60;;;4.80;99.90;;;;;;5042531;28;20201;-67
2021/12/08 05:17:54;;;;;;;0.77;0.60;;;4.80;99.90;;;;;;5040788;28;20226;-67
2021/12/08 05:20:26;;;;;;;1.08;0.98;;;4.80;99.90;;;;;;5044870;28;20503;-65
2021/12/08 05:22:58;;;;;;;12.65;1.23;;;4.80;99.90;;;;;;5044456;28;20204;-66
2021/12/08 05:25:29;;;;;;;2.35;0.70;;;4.80;99.90;;;;;;5046287;28;20732;-67
2021/12/08 05:27:59;;;;;;;1.00;0.85;;;4.80;99.90;;;;;;5049835;28;20205;-68
2021/12/08 05:30:28;;;;;;;1.77;0.63;;;4.80;99.90;;;;;;5048838;28;20320;-65
2021/12/08 05:32:57;;;;;;;1.40;0.80;;;4.80;99.90;;;;;;5045830;28;20286;-64
2021/12/08 05:35:26;;;;;;;1.05;1.05;;;4.80;99.90;;;;;;5044494;28;20964;-65
2021/12/08 05:37:53;;;;;;;0.80;0.77;;;4.80;99.90;;;;;;5045015;28;20440;-64
2021/12/08 05:40:24;;;;;;;1.25;1.25;;;4.80;99.90;;;;;;5044085;28;20222;-65
2021/12/08 05:42:51;;;;;;;0.85;0.85;;;4.80;99.90;;;;;;5044034;28;20302;-65
2021/12/08 05:45:20;;;;;;;0.55;0.50;;;4.80;99.90;;;;;;5043615;28;20270;-64
2021/12/08 05:47:51;;;;;;;0.60;0.60;;;4.70;99.90;;;;;;5045864;28;20209;-65
2021/12/08 05:50:25;;;;;;;1.35;1.10;;;4.70;99.90;;;;;;5039312;28;20237;-65
2021/12/08 05:52:54;;;;;;;0.60;0.60;;;4.80;99.90;;;;;;5043395;28;20207;-65
2021/12/08 05:55:21;;;;;;;8.55;0.85;;;4.70;99.90;;;;;;5052686;28;20291;-66
2021/12/08 05:57:48;;;;;;;1.65;1.55;;;4.70;99.90;;;;;;5076359;28;20261;-67
2021/12/08 06:00:20;;;;;;;0.65;0.50;;;4.70;99.90;;;;;;5071500;28;20231;-65
2021/12/08 06:02:47;;;;;;;1.05;1.05;;;4.70;99.90;;;;;;5060773;28;20211;-66
2021/12/08 06:05:15;;;;;;;0.65;0.60;;;4.70;99.90;;;;;;5067230;28;20213;-67
2021/12/08 06:07:42;;;;;;;0.80;0.65;;;4.70;99.90;;;;;;5072987;28;20674;-65
2021/12/08 06:10:15;;;;;;;0.73;0.70;;;4.70;99.90;;;;;;5075904;28;20232;-65
2021/12/08 06:12:42;;;;;;;1.80;1.25;;;4.70;99.90;;;;;;5073030;28;20317;-65
2021/12/08 06:15:10;;;;;;;0.98;0.98;;;4.80;99.90;;;;;;5074723;28;20210;-66
2021/12/08 06:17:36;;;;;;;0.70;0.70;;;4.70;99.90;;;;;;5067775;28;20292;-66
2021/12/08 06:20:05;;;;;;;1.70;0.90;;;4.70;99.90;;;;;;5062995;28;20240;-72
2021/12/08 06:22:32;;;;;;;3.55;0.60;;;4.80;99.90;;;;;;5064213;28;20690;-66
2021/12/08 06:24:59;;;;;;;2.40;1.13;;;4.80;99.90;;;;;;5071703;28;20259;-67
2021/12/08 06:27:27;;;;;;;9.77;1.20;;;4.80;99.90;;;;;;5068433;28;20277;-67
2021/12/08 06:29:55;;;;;;;1.05;0.95;;;4.90;99.90;;;;;;5063922;28;20261;-67
2021/12/08 06:32:22;;;;;;;1.55;1.45;;;4.90;99.90;;;;;;5074979;28;20953;-67
2021/12/08 06:34:55;;;;;;;1.90;0.90;;;4.90;99.90;;;;;;5075195;28;20200;-65
2021/12/08 06:37:28;;;;;;;1.92;0.40;;;4.90;99.90;;;;;;5071922;28;20218;-67
2021/12/08 06:40:00;;;;;;;0.90;0.90;;;5.00;99.90;;;;;;5074223;28;20223;-67
2021/12/08 06:42:32;;;;;;;0.95;0.85;;;5.00;99.90;;;;;;5075174;28;20215;-66
2021/12/08 06:44:59;;;;;;;1.45;1.05;;;5.00;99.90;;;;;;5077793;28;20208;-66
2021/12/08 06:47:29;;;;;;;2.25;0.68;;;5.00;99.90;;;;;;5082861;28;20213;-66
2021/12/08 06:50:01;;;;;;;0.82;0.82;;;5.00;99.90;;;;;;5072330;28;20243;-66
2021/12/08 06:52:31;;;;;;;1.98;0.80;;;5.00;99.90;;;;;;5077713;28;20209;-67
2021/12/08 06:55:02;;;;;;;0.80;0.60;;;5.00;99.90;;;;;;5076457;28;20299;-67
2021/12/08 06:57:35;;;;;;;0.60;0.50;;;5.00;99.90;;;;;;5062669;28;20262;-65
2021/12/08 07:00:17;;;;;;;0.93;0.70;;;5.10;99.90;;;;;;5066772;28;20305;-69
2021/12/08 07:05:53;;;;;;;3.28;0.65;;;5.20;99.90;;;;;;5076306;28;20201;-65
2021/12/08 07:08:20;;;;;;;2.17;0.77;;;5.30;99.90;;;;;;5069484;28;20202;-65
2021/12/08 07:10:48;;;;;;;0.85;0.80;;;5.30;99.90;;;;;;5070389;28;20288;-65
2021/12/08 07:13:20;;;;;;;2.35;0.82;;;5.40;99.90;;;;;;5069911;28;20209;-64
2021/12/08 07:15:50;;;;;;;0.60;0.60;;;5.40;99.90;;;;;;5070565;28;20830;-65
2021/12/08 07:18:20;;;;;;;3.13;1.30;;;5.40;99.90;;;;;;5069731;28;20296;-71
2021/12/08 07:20:52;;;;;;;2.33;1.80;;;5.50;99.90;;;;;;5072277;28;20371;-70
2021/12/08 07:23:25;;;;;;;4.80;0.88;;;5.50;99.90;;;;;;5077347;28;20224;-66
2021/12/08 07:25:55;;;;;;;1.45;0.63;;;5.70;99.90;;;;;;5078447;28;20235;-65
2021/12/08 07:28:25;;;;;;;1.95;1.52;;;5.70;99.90;;;;;;5069872;28;20564;-65
2021/12/08 07:30:54;;;;;;;6.43;0.50;;;5.60;99.90;;;;;;5070391;28;20244;-65
2021/12/08 07:33:22;;;;;;;2.67;0.55;;;5.60;99.90;;;;;;5067457;28;20284;-65
2021/12/08 07:35:53;;;;;;;3.42;0.70;;;5.60;99.90;;;;;;5069337;28;20358;-65
2021/12/08 07:38:23;;;;;;;0.52;0.40;;;5.60;99.90;;;;;;5072929;28;20234;-64
2021/12/08 07:40:54;;;;;;;0.70;0.68;;;5.60;99.90;;;;;;5076683;28;20603;-65
2021/12/08 07:43:25;;;;;;;0.82;0.75;;;5.50;99.90;;;;;;5058610;28;20535;-65
2021/12/08 07:46:02;;;;;;;1.77;1.10;;;5.50;99.90;;;;;;5073082;28;20210;-65
2021/12/08 07:48:34;;;;;;;1.33;1.00;;;5.50;99.90;;;;;;5065978;28;20450;-64
2021/12/08 07:51:05;;;;;;;9.77;0.85;;;5.50;99.90;;;;;;5073258;28;20631;-65
2021/12/08 07:53:32;;;;;;;13.23;1.95;;;5.60;99.90;;;;;;5077682;28;20318;-65
2021/12/08 07:56:04;;;;;;;0.57;0.50;;;5.60;99.90;;;;;;5076086;28;20660;-65
2021/12/08 07:58:36;;;;;;;0.50;0.50;;;5.60;99.90;;;;;;5057112;28;20226;-65
2021/12/08 08:01:07;;;;;;;1.88;0.85;;;5.60;99.90;;;;;;5076688;28;20206;-64
2021/12/08 08:03:35;;;;;;;1.90;1.35;;;5.60;99.90;;;;;;5079880;28;20273;-64
2021/12/08 08:06:06;;;;;;;0.60;0.60;;;5.60;99.90;;;;;;5072029;28;20207;-65
2021/12/08 08:08:34;;;;;;;3.72;1.42;;;5.60;99.90;;;;;;5068052;28;20206;-65
2021/12/08 08:11:05;;;;;;;1.38;1.27;;;5.60;99.90;;;;;;5081026;28;20202;-65
2021/12/08 08:13:33;;;;;;;1.55;0.95;;;5.50;99.90;;;;;;5067722;28;20209;-65
2021/12/08 08:16:05;;;;;;;2.28;1.48;;;5.50;99.90;;;;;;5071091;28;20534;-65
2021/12/08 08:18:33;;;;;;;2.95;1.52;;;5.50;99.90;;;;;;5087707;28;20229;-64
2021/12/08 08:21:04;;;;;;;3.20;0.70;;;5.40;99.90;;;;;;5082629;28;20402;-65
2021/12/08 08:23:32;;;;;;;0.85;0.80;;;5.40;99.90;;;;;;5066977;28;20231;-65
2021/12/08 08:26:01;;;;;;;1.98;1.60;;;5.40;99.90;;;;;;5076187;28;20199;-64
2021/12/08 08:28:28;;;;;;;6.65;1.70;;;5.30;99.90;;;;;;5067700;28;20278;-64
2021/12/08 08:31:02;;;;;;;1.20;0.73;;;5.30;99.90;;;;;;5067628;28;20610;-65
2021/12/08 08:33:31;;;;;;;1.85;1.60;;;5.30;99.90;;;;;;5077568;28;20721;-65
2021/12/08 08:36:04;;;;;;;2.40;0.95;;;5.30;99.90;;;;;;5070919;28;20215;-64
2021/12/08 08:38:34;;;;;;;0.80;0.63;;;5.30;99.90;;;;;;5067099;28;20231;-65
2021/12/08 08:41:06;;;;;;;2.17;1.15;;;5.30;99.90;;;;;;5073642;28;20676;-65
2021/12/08 08:43:33;;;;;;;0.68;0.50;;;5.30;99.90;;;;;;5067443;28;20204;-65
2021/12/08 08:46:08;;;;;;;3.95;1.20;;;5.30;99.90;;;;;;5081470;28;21573;-65
2021/12/08 08:48:43;;;;;;;5.90;1.17;;;5.30;99.90;;;;;;5075432;28;20222;-65
2021/12/08 08:51:13;;;;;;;2.60;1.60;;;5.40;99.90;;;;;;5067714;28;20205;-65
2021/12/08 08:53:45;;;;;;;1.70;1.05;;;5.40;99.90;;;;;;5067876;28;20653;-65
2021/12/08 08:56:15;;;;;;;3.55;1.00;;;5.50;99.90;;;;;;5076661;28;20209;-65
2021/12/08 08:58:45;;;;;;;3.72;1.15;;;5.50;99.90;;;;;;5070262;28;20211;-65
2021/12/08 09:01:16;;;;;;;1.42;1.30;;;5.60;99.90;;;;;;5063020;28;20216;-67
2021/12/08 09:03:46;;;;;;;1.95;1.00;;;5.60;99.90;;;;;;5065657;28;20229;-68
2021/12/08 09:06:19;;;;;;;1.20;1.10;;;5.70;99.90;;;;;;5066295;28;20277;-65
2021/12/08 09:08:46;;;;;;;1.33;0.77;;;5.70;99.90;;;;;;5066547;28;20194;-68
2021/12/08 09:11:16;;;;;;;1.25;0.95;;;5.80;99.90;;;;;;5067268;28;20245;-67
2021/12/08 09:13:48;;;;;;;2.13;0.90;;;5.80;99.90;;;;;;5069796;28;20210;-67
2021/12/08 09:16:21;;;;;;;1.13;1.00;;;5.90;99.90;;;;;;5079162;28;20223;-66
2021/12/08 09:18:59;;;;;;;1.33;0.95;;;5.90;99.90;;;;;;5069456;28;20701;-66
2021/12/08 09:21:30;;;;;;;2.65;1.20;;;5.90;99.90;;;;;;5063773;28;20926;-67
2021/12/08 09:24:04;;;;;;;2.92;1.13;;;5.90;99.90;;;;;;5072441;28;20626;-66
2021/12/08 09:26:33;;;;;;;0.80;0.80;;;6.00;99.90;;;;;;5073019;28;20742;-66
2021/12/08 09:29:05;;;;;;;2.90;1.02;;;6.00;99.90;;;;;;5076368;28;20223;-68
2021/12/08 09:31:37;;;;;;;0.88;0.88;;;6.00;99.90;;;;;;5058296;28;20201;-65
2021/12/08 09:34:12;;;;;;;1.40;0.90;;;6.10;99.90;;;;;;5067686;28;20207;-66
2021/12/08 09:36:45;;;;;;;6.00;2.22;;;6.10;99.90;;;;;;5077500;28;20304;-65
2021/12/08 09:39:21;;;;;;;3.90;1.00;;;6.20;99.90;;;;;;5066350;28;20237;-65
2021/12/08 09:41:53;;;;;;;1.73;0.90;;;6.20;99.90;;;;;;5065325;28;20230;-67
2021/12/08 09:44:24;;;;;;;0.63;0.63;;;6.20;99.90;;;;;;5079367;28;20209;-66
2021/12/08 09:46:53;;;;;;;1.05;1.02;;;6.20;99.90;;;;;;5076583;28;20205;-67
2021/12/08 09:49:24;;;;;;;3.38;0.95;;;6.30;99.90;;;;;;5067752;28;20791;-66
2021/12/08 09:51:52;;;;;;;1.45;0.70;;;6.30;99.90;;;;;;5067411;28;20225;-66
2021/12/08 09:54:19;;;;;;;3.03;1.38;;;6.40;99.90;;;;;;5064311;28;20532;-66
2021/12/08 09:56:49;;;;;;;0.90;0.75;;;6.50;99.90;;;;;;5060858;28;20561;-66
2021/12/08 09:59:16;;;;;;;1.20;1.10;;;6.50;99.90;;;;;;5062432;28;20311;-66
2021/12/08 10:01:44;;;;;;;0.70;0.70;;;6.60;99.90;;;;;;5061702;28;20207;-65
2021/12/08 10:04:13;;;;;;;0.73;0.70;;;6.70;99.90;;;;;;5067355;28;20203;-66
2021/12/08 10:06:42;;;;;;;8.73;1.63;;;6.70;99.90;;;;;;5068165;28;20297;-65
2021/12/08 10:09:09;;;;;;;0.90;0.60;;;6.70;99.90;;;;;;5068365;28;20225;-65
2021/12/08 10:11:36;;;;;;;1.08;0.90;;;6.70;99.90;;;;;;5069072;28;20206;-66
2021/12/08 10:14:04;;;;;;;1.95;1.55;;;6.70;99.90;;;;;;5067821;28;20211;-66
2021/12/08 10:16:33;;;;;;;1.27;1.15;;;6.80;99.90;;;;;;5075798;28;20207;-66
2021/12/08 10:19:00;;;;;;;1.60;1.50;;;6.90;99.90;;;;;;5071860;28;20586;-66
2021/12/08 10:21:35;;;;;;;1.70;0.90;;;6.90;99.90;;;;;;5072976;28;20708;-66
2021/12/08 10:24:02;;;;;;;6.07;0.90;;;6.90;99.90;;;;;;5069265;28;20198;-66
2021/12/08 10:26:33;;;;;;;1.40;1.30;;;6.90;99.90;;;;;;5077632;28;20667;-66
2021/12/08 10:29:00;;;;;;;1.23;0.80;;;6.90;99.90;;;;;;5073237;28;20226;-66
2021/12/08 10:31:31;;;;;;;1.40;0.73;;;7.00;99.90;;;;;;5071392;28;20291;-66
2021/12/08 10:34:03;;;;;;;3.70;1.80;;;7.00;99.90;;;;;;5068214;28;20218;-66
2021/12/08 10:39:32;;;;;;;1.88;0.95;;;7.20;99.90;;;;;;5066940;28;20808;-65
2021/12/08 10:42:10;;;;;;;1.58;1.30;;;7.30;99.90;;;;;;5070079;28;20658;-66
2021/12/08 10:44:44;;;;;;;1.05;0.82;;;7.30;99.90;;;;;;5060355;28;20200;-66
2021/12/08 10:47:12;;;;;;;2.15;0.65;;;7.30;99.90;;;;;;5068483;28;20565;-66
2021/12/08 10:55:19;;;;;;;0.77;0.60;;;7.50;99.90;;;;;;5064912;28;20215;-66
2021/12/08 10:57:47;;;;;;;1.50;0.90;;;7.60;99.90;;;;;;5068338;28;20298;-66
2021/12/08 11:00:18;;;;;;;1.05;0.75;;;7.60;99.90;;;;;;5071776;28;20235;-66
2021/12/08 11:02:48;;;;;;;0.50;0.50;;;7.60;99.90;;;;;;5061231;28;20301;-66
2021/12/08 11:05:37;;;;;;;1.10;1.00;;;7.60;99.90;;;;;;5069437;28;20216;-66
2021/12/08 11:08:08;;;;;;;3.00;0.73;;;7.60;99.90;;;;;;5067959;28;20234;-65
2021/12/08 11:10:39;;;;;;;1.45;0.70;;;7.60;99.90;;;;;;5075394;28;20224;-66
2021/12/08 11:13:07;;;;;;;3.42;1.20;;;7.60;99.90;;;;;;5077122;28;20214;-66
2021/12/08 11:15:35;;;;;;;1.05;0.90;;;7.60;99.90;;;;;;5072131;28;20265;-65
2021/12/08 11:18:15;;;;;;;2.67;0.90;;;7.70;99.90;;;;;;5067321;28;20204;-65
2021/12/08 11:20:48;;;;;;;0.77;0.77;;;7.70;99.90;;;;;;5067637;28;20230;-65
2021/12/08 11:23:28;;;;;;;0.50;0.50;;;7.70;99.90;;;;;;5076017;28;20207;-65
2021/12/08 11:25:56;;;;;;;0.65;0.65;;;7.70;99.90;;;;;;5072866;28;20199;-75
2021/12/08 11:28:29;;;;;;;1.70;1.00;;;7.70;99.90;;;;;;5074342;28;20209;-69
2021/12/08 11:31:05;;;;;;;1.77;0.70;;;7.70;99.90;;;;;;5073411;28;20195;-69
2021/12/08 11:33:32;;;;;;;3.42;0.98;;;7.70;99.90;;;;;;5073194;28;20229;-70
2021/12/08 11:36:11;;;;;;;2.10;0.75;;;7.70;99.90;;;;;;5068503;28;20236;-69
2021/12/08 11:38:40;;;;;;;1.45;1.02;;;7.80;99.90;;;;;;5073807;28;20692;-69
2021/12/08 11:41:21;;;;;;;4.53;1.17;;;7.80;99.90;;;;;;5069696;28;20221;-69
2021/12/08 11:43:51;;;;;;;1.13;0.75;;;7.90;99.90;;;;;;5070458;28;20204;-68
2021/12/08 11:46:19;;;;;;;1.20;1.00;;;7.90;99.90;;;;;;5072703;28;20211;-69
2021/12/08 11:49:02;;;;;;;3.35;1.35;;;7.90;99.90;;;;;;5080745;28;20217;-69
2021/12/08 11:51:29;;;;;;;3.13;1.60;;;8.00;99.90;;;;;;5053491;28;20200;-69
2021/12/08 11:53:57;;;;;;;1.48;0.80;;;8.00;99.90;;;;;;5066104;28;20453;-69
2021/12/08 11:56:33;;;;;;;0.70;0.50;;;8.00;99.90;;;;;;5076249;28;20210;-68
2021/12/08 11:59:01;;;;;;;1.00;0.70;;;8.10;99.90;;;;;;5063795;28;20545;-68
2021/12/08 12:01:29;;;;;;;0.93;0.60;;;8.10;99.90;;;;;;5076139;28;20517;-69
2021/12/08 12:03:56;;;;;;;2.55;1.02;;;8.10;99.90;;;;;;5070550;28;20465;-69
2021/12/08 12:06:27;;;;;;;4.43;0.60;;;8.10;99.90;;;;;;5066763;28;20207;-70
2021/12/08 12:08:58;;;;;;;3.07;1.10;;;8.00;99.90;;;;;;5066284;28;20224;-70
2021/12/08 12:11:26;;;;;;;5.90;0.70;;;8.00;99.90;;;;;;5075014;28;20524;-69
2021/12/08 12:13:54;;;;;;;1.13;0.50;;;8.10;99.90;;;;;;5068204;28;20501;-70
2021/12/08 12:16:21;;;;;;;3.23;0.70;;;8.10;99.90;;;;;;5072767;28;20531;-70
2021/12/08 12:18:50;;;;;;;0.93;0.50;;;8.10;99.90;;;;;;5073710;28;20465;-70
2021/12/08 12:21:28;;;;;;;0.50;0.30;;;8.20;99.90;;;;;;5072140;28;21204;-70
2021/12/08 12:24:05;;;;;;;3.83;2.13;;;8.20;99.90;;;;;;5072911;28;20461;-70
2021/12/08 12:26:46;;;;;;;2.13;0.75;;;8.20;99.90;;;;;;5082096;28;20458;-70
2021/12/08 12:29:23;;;;;;;3.78;0.60;;;8.10;99.90;;;;;;5057247;28;20283;-70
2021/12/08 12:31:54;;;;;;;2.70;1.42;;;8.10;99.90;;;;;;5071946;28;20281;-70
2021/12/08 12:34:24;;;;;;;0.50;0.40;;;8.00;99.90;;;;;;5074060;28;20539;-70
2021/12/08 12:36:51;;;;;;;1.27;1.03;;;8.10;99.90;;;;;;5067234;28;20461;-70
2021/12/08 12:39:21;;;;;;;1.53;1.00;;;8.10;99.90;;;;;;5070660;28;20999;-70
2021/12/08 12:41:59;;;;;;;0.60;0.47;;;8.20;99.90;;;;;;5060581;28;20452;-69
2021/12/08 12:44:28;;;;;;;0.60;0.60;;;8.30;99.90;;;;;;5064297;28;20454;-69
2021/12/08 12:47:23;;;;;;;1.00;0.43;;;8.30;99.90;;;;;;5066837;28;20953;-69
2021/12/08 12:50:13;;;;;;;0.65;0.50;;;8.20;99.90;;;;;;5071395;28;20483;-70
2021/12/08 12:52:42;;;;;;;0.77;0.70;;;8.20;99.90;;;;;;5062944;28;20764;-70
2021/12/08 12:55:13;;;;;;;1.67;1.15;;;8.20;99.90;;;;;;5071858;28;20449;-74
2021/12/08 12:58:19;;;;;;;1.37;1.03;;;8.20;99.90;;;;;;5069306;28;20278;-71
2021/12/08 13:00:48;;;;;;;0.50;0.50;;;8.20;99.90;;;;;;5069121;28;20650;-71
2021/12/08 13:03:55;;;;;;;1.27;1.00;;;8.20;99.90;;;;;;5066646;28;20206;-69
2021/12/08 13:06:43;;;;;;;0.93;0.60;;;8.20;99.90;;;;;;5061770;28;20526;-68
2021/12/08 13:09:11;;;;;;;1.95;1.27;;;8.20;99.90;;;;;;5077924;28;20473;-69
2021/12/08 13:11:57;;;;;;;1.10;0.73;;;8.10;99.90;;;;;;5074894;28;20203;-69
2021/12/08 13:14:30;;;;;;;1.60;1.10;;;8.00;99.90;;;;;;5054119;28;20453;-69
2021/12/08 13:17:20;;;;;;;2.07;0.80;;;8.10;99.90;;;;;;5065040;28;20446;-68
2021/12/08 13:19:49;;;;;;;0.87;0.40;;;8.00;99.90;;;;;;5064787;28;20489;-68
2021/12/08 13:22:42;;;;;;;1.30;0.73;;;8.00;99.90;;;;;;5065065;28;20454;-68
2021/12/08 13:25:28;;;;;;;0.47;0.40;;;8.00;99.90;;;;;;5064094;28;20249;-68
2021/12/08 13:28:07;;;;;;;0.90;0.80;;;7.90;99.90;;;;;;5079603;28;20208;-68
2021/12/08 13:30:34;;;;;;;1.07;0.67;;;7.90;99.90;;;;;;5063941;28;20222;-68
2021/12/08 13:33:08;;;;;;;1.95;1.00;;;7.90;99.90;;;;;;5064618;28;20577;-67
2021/12/08 13:35:37;;;;;;;0.68;0.68;;;7.80;99.90;;;;;;5066300;28;20206;-68
2021/12/08 13:38:05;;;;;;;0.50;0.40;;;7.80;99.90;;;;;;5065943;28;20215;-67
2021/12/08 13:40:43;;;;;;;3.38;0.65;;;7.80;99.90;;;;;;5064893;28;20602;-67
2021/12/08 13:43:31;;;;;;;2.25;0.80;;;7.80;99.90;;;;;;5063068;28;20552;-67
2021/12/08 13:45:58;;;;;;;3.40;0.85;;;7.80;99.90;;;;;;5063503;28;20199;-68
2021/12/08 13:48:25;;;;;;;5.65;1.23;;;7.80;99.90;;;;;;5063797;28;20254;-68
2021/12/08 13:50:52;;;;;;;3.35;1.02;;;7.80;99.90;;;;;;5063553;28;20284;-67